Time;durP1;ratioP1;P1;durP2;ratioP2;P2;SDS_P1;SDS_P2;PMS_P1;PMS_P2;Temp;Humidity;BMP_temperature;BMP_pressure;BME280_temperature;BME280_humidity;BME280_pressure;Samples;Min_cycle;Max_cycle;Signal;HPM_P1;HPM_P2
2023/10/08 00:03:09;;;;;;;0.70;0.70;;;;;;;;;;5053092;28;20211;-54
2023/10/08 00:05:36;;;;;;;0.80;0.80;;;;;;;;;;5053139;28;20204;-54
2023/10/08 00:08:04;;;;;;;0.60;0.60;;;;;;;;;;5053214;28;20204;-54
2023/10/08 00:10:34;;;;;;;0.60;0.60;;;;;;;;;;5053278;28;20670;-53
2023/10/08 00:13:00;;;;;;;0.60;0.60;;;;;;;;;;5053035;28;20229;-54
2023/10/08 00:15:26;;;;;;;1.37;0.90;;;;;;;;;;5053124;28;20291;-54
2023/10/08 00:17:58;;;;;;;0.73;0.73;;;;;;;;;;5052616;28;20200;-54
2023/10/08 00:20:28;;;;;;;1.87;1.07;;;;;;;;;;5052948;28;20573;-53
2023/10/08 00:22:55;;;;;;;0.77;0.67;;;;;;;;;;5052815;28;20207;-53
2023/10/08 00:25:21;;;;;;;1.27;1.17;;;;;;;;;;5053002;28;20224;-54
2023/10/08 00:27:50;;;;;;;0.97;0.90;;;;;;;;;;5052787;28;20238;-54
2023/10/08 00:30:20;;;;;;;1.43;1.10;;;;;;;;;;5052592;28;20620;-54
2023/10/08 00:32:46;;;;;;;1.30;1.20;;;;;;;;;;5052692;28;20228;-54
2023/10/08 00:35:20;;;;;;;1.43;1.33;;;;;;;;;;5052782;28;20216;-54
2023/10/08 00:37:48;;;;;;;1.70;1.33;;;;;;;;;;5052585;28;20228;-53
2023/10/08 00:40:21;;;;;;;2.37;1.40;;;;;;;;;;5052482;28;20239;-53
2023/10/08 00:42:47;;;;;;;2.80;1.20;;;;;;;;;;5052275;28;20208;-53
2023/10/08 00:45:14;;;;;;;1.80;1.07;;;;;;;;;;5052694;28;20200;-53
2023/10/08 00:47:43;;;;;;;2.07;1.30;;;;;;;;;;5052392;28;20283;-53
2023/10/08 00:50:10;;;;;;;1.53;1.10;;;;;;;;;;5049096;28;20253;-54
2023/10/08 00:52:40;;;;;;;1.80;1.10;;;;;;;;;;5052434;28;20231;-52
2023/10/08 00:55:09;;;;;;;1.40;1.10;;;;;;;;;;5052401;28;20627;-54
2023/10/08 00:57:36;;;;;;;1.10;1.10;;;;;;;;;;5051840;28;20279;-54
2023/10/08 01:00:06;;;;;;;2.37;1.20;;;;;;;;;;5052440;28;20200;-54
2023/10/08 01:03:00;;;;;;;2.53;1.20;;;;;;;;;;5052445;28;20208;-54
2023/10/08 01:05:36;;;;;;;1.20;1.10;;;;;;;;;;5052374;28;20524;-54
2023/10/08 01:08:06;;;;;;;1.73;1.30;;;;;;;;;;5052321;28;20250;-54
2023/10/08 01:10:34;;;;;;;1.83;1.40;;;;;;;;;;5052241;28;20560;-53
2023/10/08 01:13:14;;;;;;;1.60;1.47;;;;;;;;;;5052090;28;20224;-54
2023/10/08 01:15:41;;;;;;;2.63;1.40;;;;;;;;;;5052177;28;20215;-53
2023/10/08 01:18:14;;;;;;;1.60;1.20;;;;;;;;;;5051989;28;20656;-54
2023/10/08 01:20:52;;;;;;;1.83;1.20;;;;;;;;;;5052071;28;20206;-54
2023/10/08 01:23:26;;;;;;;1.63;1.43;;;;;;;;;;5052289;28;20231;-54
2023/10/08 01:25:59;;;;;;;3.63;1.30;;;;;;;;;;5051900;28;20214;-54
2023/10/08 01:28:31;;;;;;;2.63;1.40;;;;;;;;;;5052102;28;20230;-54
2023/10/08 01:31:00;;;;;;;1.20;1.10;;;;;;;;;;5051788;28;21171;-54
2023/10/08 01:33:37;;;;;;;1.70;1.20;;;;;;;;;;5051739;28;20737;-53
2023/10/08 01:36:04;;;;;;;1.40;1.30;;;;;;;;;;5051933;28;20737;-54
2023/10/08 01:38:35;;;;;;;1.40;1.30;;;;;;;;;;5051876;28;20230;-54
2023/10/08 01:41:05;;;;;;;2.07;1.20;;;;;;;;;;5051783;28;20612;-54
2023/10/08 01:43:31;;;;;;;4.20;1.40;;;;;;;;;;5051781;28;20671;-54
2023/10/08 01:45:58;;;;;;;1.70;1.43;;;;;;;;;;5051657;28;20254;-54
2023/10/08 01:48:37;;;;;;;2.73;1.30;;;;;;;;;;5051655;28;20726;-54
2023/10/08 01:51:11;;;;;;;2.93;1.30;;;;;;;;;;5051714;28;20204;-55
2023/10/08 01:53:38;;;;;;;2.07;1.40;;;;;;;;;;5051718;28;20224;-54
2023/10/08 01:56:05;;;;;;;2.03;1.07;;;;;;;;;;5051710;28;20253;-54
2023/10/08 01:58:33;;;;;;;1.30;1.10;;;;;;;;;;5051702;28;20196;-55
2023/10/08 02:01:00;;;;;;;1.73;1.10;;;;;;;;;;5051486;28;20203;-54
2023/10/08 02:03:27;;;;;;;1.10;1.00;;;;;;;;;;5051638;28;20207;-55
2023/10/08 02:05:58;;;;;;;1.97;1.10;;;;;;;;;;5051429;28;20208;-55
2023/10/08 02:08:26;;;;;;;1.53;1.10;;;;;;;;;;5053468;28;20283;-55
2023/10/08 02:10:53;;;;;;;3.30;1.60;;;;;;;;;;5055519;28;20211;-54
2023/10/08 02:13:19;;;;;;;2.00;1.30;;;;;;;;;;5055606;28;20232;-54
2023/10/08 02:15:47;;;;;;;1.67;1.13;;;;;;;;;;5055298;28;20254;-54
2023/10/08 02:18:13;;;;;;;1.20;1.10;;;;;;;;;;5055513;28;20201;-54
2023/10/08 02:20:39;;;;;;;1.27;1.10;;;;;;;;;;5055278;28;20196;-55
2023/10/08 02:23:05;;;;;;;2.37;0.93;;;;;;;;;;5055362;28;20192;-55
2023/10/08 02:25:32;;;;;;;1.20;1.10;;;;;;;;;;5055410;28;20204;-55
2023/10/08 02:27:59;;;;;;;1.20;1.10;;;;;;;;;;5055263;28;20192;-55
2023/10/08 02:30:27;;;;;;;1.90;1.50;;;;;;;;;;5055262;28;20623;-54
2023/10/08 02:32:53;;;;;;;1.20;1.10;;;;;;;;;;5054954;28;20247;-55
2023/10/08 02:35:19;;;;;;;2.27;1.20;;;;;;;;;;5055253;28;20246;-55
2023/10/08 02:37:45;;;;;;;2.40;1.47;;;;;;;;;;5055012;28;20569;-55
2023/10/08 02:40:27;;;;;;;1.23;1.10;;;;;;;;;;5054893;28;20244;-55
2023/10/08 02:43:00;;;;;;;2.03;1.13;;;;;;;;;;5055054;28;20196;-54
2023/10/08 02:45:29;;;;;;;1.37;0.90;;;;;;;;;;5055042;28;20642;-54
2023/10/08 02:47:55;;;;;;;1.50;0.90;;;;;;;;;;5054797;28;20312;-55
2023/10/08 02:50:22;;;;;;;1.77;1.20;;;;;;;;;;5054945;28;20279;-57
2023/10/08 02:52:49;;;;;;;1.63;1.40;;;;;;;;;;5054765;28;20315;-55
2023/10/08 02:55:58;;;;;;;1.90;1.10;;;;;;;;;;5054845;28;20215;-55
2023/10/08 02:58:04;;;;;;;1.73;1.63;;;;;;;;;;5051608;28;20214;-54
2023/10/08 03:00:34;;;;;;;2.00;1.43;;;;;;;;;;5054627;28;20196;-54
2023/10/08 03:03:01;;;;;;;2.53;1.20;;;;;;;;;;5054485;28;20204;-54
2023/10/08 03:05:35;;;;;;;1.83;1.40;;;;;;;;;;5054644;28;20227;-54
2023/10/08 03:08:01;;;;;;;1.10;1.00;;;;;;;;;;5054606;28;20197;-55
2023/10/08 03:10:33;;;;;;;1.60;1.50;;;;;;;;;;5054475;28;20704;-54
2023/10/08 03:13:07;;;;;;;2.00;1.20;;;;;;;;;;5054378;28;20224;-54
2023/10/08 03:15:46;;;;;;;1.90;1.50;;;;;;;;;;5054452;28;20211;-55
2023/10/08 03:18:14;;;;;;;1.20;1.10;;;;;;;;;;5054396;28;20208;-54
2023/10/08 03:20:49;;;;;;;3.67;1.50;;;;;;;;;;5053470;28;20204;-54
2023/10/08 03:23:30;;;;;;;1.70;1.20;;;;;;;;;;5054300;28;20741;-54
2023/10/08 03:26:00;;;;;;;1.70;1.17;;;;;;;;;;5054139;28;20258;-54
2023/10/08 03:28:27;;;;;;;2.57;1.40;;;;;;;;;;5054270;28;20269;-54
2023/10/08 03:31:03;;;;;;;4.53;1.40;;;;;;;;;;5053951;28;20222;-54
2023/10/08 03:33:34;;;;;;;1.97;1.10;;;;;;;;;;5054008;28;20767;-55
2023/10/08 03:36:00;;;;;;;2.07;1.40;;;;;;;;;;5053927;28;20213;-55
2023/10/08 03:38:44;;;;;;;1.20;1.10;;;;;;;;;;5054046;28;20208;-55
2023/10/08 03:41:15;;;;;;;2.30;1.33;;;;;;;;;;5054058;28;20193;-55
2023/10/08 03:44:01;;;;;;;1.97;1.50;;;;;;;;;;5053906;28;20192;-55
2023/10/08 03:46:28;;;;;;;1.30;1.20;;;;;;;;;;5053896;28;20285;-55
2023/10/08 03:48:57;;;;;;;2.03;1.50;;;;;;;;;;5053654;28;20286;-55
2023/10/08 03:51:27;;;;;;;1.63;1.30;;;;;;;;;;5053843;28;20208;-55
2023/10/08 03:54:06;;;;;;;2.17;1.40;;;;;;;;;;5053585;28;20278;-55
2023/10/08 03:56:36;;;;;;;1.43;1.20;;;;;;;;;;5053871;28;20203;-55
2023/10/08 03:59:20;;;;;;;1.90;1.33;;;;;;;;;;5053657;28;20262;-54
2023/10/08 04:01:54;;;;;;;2.80;1.57;;;;;;;;;;5053479;28;20200;-54
2023/10/08 04:04:21;;;;;;;2.03;1.50;;;;;;;;;;5053586;28;20724;-54
2023/10/08 04:06:49;;;;;;;1.60;1.50;;;;;;;;;;5053435;28;20204;-54
2023/10/08 04:09:23;;;;;;;2.33;1.30;;;;;;;;;;5053351;28;20196;-54
2023/10/08 04:11:55;;;;;;;3.00;1.70;;;;;;;;;;5053440;28;20573;-55
2023/10/08 04:14:23;;;;;;;1.80;1.57;;;;;;;;;;5053228;28;20252;-55
2023/10/08 04:16:53;;;;;;;1.80;1.50;;;;;;;;;;5053209;28;20215;-55
2023/10/08 04:19:20;;;;;;;1.67;1.57;;;;;;;;;;5053453;28;20235;-55
2023/10/08 04:21:53;;;;;;;1.93;1.53;;;;;;;;;;5053190;28;20271;-55
2023/10/08 04:24:20;;;;;;;3.50;1.50;;;;;;;;;;5053347;28;20238;-54
2023/10/08 04:26:48;;;;;;;3.33;1.90;;;;;;;;;;5053092;28;20611;-54
2023/10/08 04:29:16;;;;;;;3.40;2.10;;;;;;;;;;5053211;28;20196;-54
2023/10/08 04:31:46;;;;;;;2.40;1.60;;;;;;;;;;5051813;28;20196;-55
2023/10/08 04:34:16;;;;;;;5.10;2.00;;;;;;;;;;5052776;28;20573;-55
2023/10/08 04:36:45;;;;;;;2.87;1.80;;;;;;;;;;5052831;28;20224;-55
2023/10/08 04:39:14;;;;;;;2.93;1.70;;;;;;;;;;5052648;28;20264;-55
2023/10/08 04:41:42;;;;;;;2.43;1.50;;;;;;;;;;5052868;28;20225;-55
2023/10/08 04:44:13;;;;;;;3.53;1.83;;;;;;;;;;5052680;28;20231;-54
2023/10/08 04:46:46;;;;;;;2.23;1.50;;;;;;;;;;5052675;28;20210;-55
2023/10/08 04:51:56;;;;;;;2.07;1.87;;;;;;;;;;5052642;28;20287;-55
2023/10/08 04:54:22;;;;;;;2.83;1.93;;;;;;;;;;5052538;28;20281;-55
2023/10/08 04:56:49;;;;;;;3.27;1.87;;;;;;;;;;5052549;28;20196;-55
2023/10/08 04:59:20;;;;;;;2.30;2.10;;;;;;;;;;5052385;28;20613;-55
2023/10/08 05:02:12;;;;;;;2.63;1.80;;;;;;;;;;5052422;28;20638;-55
2023/10/08 05:04:55;;;;;;;2.40;1.83;;;;;;;;;;5052492;28;20223;-54
2023/10/08 05:07:40;;;;;;;3.87;1.97;;;;;;;;;;5052489;28;20200;-55
2023/10/08 05:20:29;;;;;;;2.53;2.13;;;;;;;;;;5048876;28;20196;-55
2023/10/08 05:23:05;;;;;;;3.50;2.20;;;;;;;;;;5043454;28;20577;-54
2023/10/08 05:25:57;;;;;;;2.83;1.80;;;;;;;;;;5043625;28;20235;-55
2023/10/08 05:28:26;;;;;;;3.23;2.17;;;;;;;;;;5046967;28;20200;-54
2023/10/08 05:31:11;;;;;;;3.63;2.17;;;;;;;;;;5046845;28;20258;-54
2023/10/08 05:34:14;;;;;;;2.30;2.10;;;;;;;;;;5043408;28;20370;-55
2023/10/08 05:42:16;;;;;;;2.80;2.50;;;;;;;;;;5051892;28;20249;-55
2023/10/08 05:44:46;;;;;;;3.40;2.80;;;;;;;;;;5048373;28;20283;-55
2023/10/08 05:47:28;;;;;;;5.87;2.47;;;;;;;;;;5046386;28;20200;-55
2023/10/08 05:50:28;;;;;;;3.07;2.30;;;;;;;;;;5044550;28;20302;-55
2023/10/08 05:55:26;;;;;;;5.00;2.83;;;;;;;;;;5041301;28;20530;-55
2023/10/08 05:58:13;;;;;;;3.13;2.33;;;;;;;;;;5049915;28;20341;-54
2023/10/08 06:03:37;;;;;;;2.90;2.60;;;;;;;;;;5050091;28;20199;-54
2023/10/08 06:09:05;;;;;;;4.50;2.90;;;;;;;;;;5046600;28;20713;-54
2023/10/08 06:11:44;;;;;;;3.37;2.50;;;;;;;;;;5039620;28;20212;-55
2023/10/08 06:14:52;;;;;;;5.10;3.10;;;;;;;;;;5051500;28;20691;-55
2023/10/08 06:17:33;;;;;;;3.80;3.10;;;;;;;;;;5051276;28;20203;-54
2023/10/08 06:20:09;;;;;;;4.63;2.87;;;;;;;;;;5051358;28;20664;-55
2023/10/08 06:22:35;;;;;;;5.63;3.40;;;;;;;;;;5049766;28;20705;-55
2023/10/08 06:25:17;;;;;;;3.33;3.00;;;;;;;;;;5048019;28;20279;-55
2023/10/08 06:27:44;;;;;;;3.37;2.97;;;;;;;;;;5049723;28;20215;-55
2023/10/08 06:30:16;;;;;;;5.40;3.50;;;;;;;;;;5046008;28;20263;-55
2023/10/08 06:32:44;;;;;;;4.03;3.40;;;;;;;;;;5044325;28;20204;-55
2023/10/08 06:35:17;;;;;;;4.83;3.30;;;;;;;;;;5040757;28;20235;-55
2023/10/08 06:37:43;;;;;;;4.77;3.43;;;;;;;;;;5044259;28;20204;-55
2023/10/08 06:40:36;;;;;;;5.13;3.03;;;;;;;;;;5047369;28;20232;-55
2023/10/08 06:42:57;;;;;;;4.03;3.27;;;;;;;;;;5049256;28;20917;-55
2023/10/08 06:45:23;;;;;;;3.83;3.30;;;;;;;;;;5049253;28;20239;-55
2023/10/08 06:47:49;;;;;;;5.07;3.43;;;;;;;;;;5047678;28;20223;-55
2023/10/08 06:50:15;;;;;;;4.50;3.37;;;;;;;;;;5047695;28;20211;-55
2023/10/08 06:52:43;;;;;;;4.97;3.20;;;;;;;;;;5045865;28;20625;-55
2023/10/08 06:55:11;;;;;;;4.73;3.57;;;;;;;;;;5047230;28;20231;-55
2023/10/08 06:57:38;;;;;;;4.73;3.40;;;;;;;;;;5052804;28;20193;-55
2023/10/08 07:00:12;;;;;;;7.20;4.00;;;;;;;;;;5049472;28;20203;-55
2023/10/08 07:02:39;;;;;;;4.23;3.80;;;;;;;;;;5045906;28;20231;-54
2023/10/08 07:05:09;;;;;;;7.20;4.27;;;;;;;;;;5052949;28;20590;-54
2023/10/08 07:07:39;;;;;;;4.90;3.77;;;;;;;;;;5049568;28;20200;-53
2023/10/08 07:10:10;;;;;;;6.10;3.50;;;;;;;;;;5047440;28;20207;-54
2023/10/08 07:12:39;;;;;;;7.03;4.27;;;;;;;;;;5050918;28;20204;-50
2023/10/08 07:15:11;;;;;;;7.63;3.80;;;;;;;;;;5050683;28;20236;-51
2023/10/08 07:17:40;;;;;;;6.93;3.60;;;;;;;;;;5053874;28;20200;-51
2023/10/08 07:20:13;;;;;;;4.10;3.70;;;;;;;;;;5052405;28;20204;-52
2023/10/08 07:22:43;;;;;;;4.93;4.03;;;;;;;;;;5047328;28;20279;-52
2023/10/08 07:25:12;;;;;;;5.50;3.77;;;;;;;;;;5048836;28;20197;-53
2023/10/08 07:27:39;;;;;;;3.80;3.50;;;;;;;;;;5050649;28;20204;-52
2023/10/08 07:30:10;;;;;;;5.27;4.17;;;;;;;;;;5048801;28;20204;-51
2023/10/08 07:32:38;;;;;;;5.63;4.83;;;;;;;;;;5050781;28;20242;-52
2023/10/08 07:37:47;;;;;;;5.87;4.33;;;;;;;;;;5054112;28;20655;-52
2023/10/08 07:40:13;;;;;;;8.40;4.00;;;;;;;;;;5053681;28;20845;-52
2023/10/08 07:42:41;;;;;;;7.23;4.50;;;;;;;;;;5051407;28;20196;-52
2023/10/08 07:45:08;;;;;;;7.40;4.90;;;;;;;;;;5053365;28;20200;-52
2023/10/08 07:47:34;;;;;;;5.53;4.17;;;;;;;;;;5053817;28;20277;-53
2023/10/08 07:50:01;;;;;;;8.10;4.27;;;;;;;;;;5053358;28;20659;-53
2023/10/08 07:52:29;;;;;;;5.33;4.30;;;;;;;;;;5053286;28;20706;-53
2023/10/08 07:54:55;;;;;;;3.70;3.30;;;;;;;;;;5053099;28;20248;-53
2023/10/08 07:57:26;;;;;;;5.40;4.20;;;;;;;;;;5053166;28;20238;-53
2023/10/08 08:00:17;;;;;;;6.23;4.37;;;;;;;;;;5053131;28;20292;-53
2023/10/08 08:02:42;;;;;;;5.03;4.07;;;;;;;;;;5053092;28;20228;-52
2023/10/08 08:05:08;;;;;;;6.47;4.17;;;;;;;;;;5052952;28;20227;-53
2023/10/08 08:07:34;;;;;;;6.37;4.93;;;;;;;;;;5052998;28;20235;-53
2023/10/08 08:10:01;;;;;;;5.20;3.77;;;;;;;;;;5052911;28;20333;-53
2023/10/08 08:12:35;;;;;;;4.83;3.60;;;;;;;;;;5053011;28;20250;-52
2023/10/08 08:15:14;;;;;;;5.37;3.83;;;;;;;;;;5052836;28;20251;-52
2023/10/08 08:17:40;;;;;;;5.33;3.50;;;;;;;;;;5052921;28;20285;-52
2023/10/08 08:20:17;;;;;;;6.10;4.20;;;;;;;;;;5052820;28;20666;-52
2023/10/08 08:22:49;;;;;;;5.23;3.73;;;;;;;;;;5052815;28;20207;-52
2023/10/08 08:25:15;;;;;;;5.50;3.70;;;;;;;;;;5052930;28;20204;-52
2023/10/08 08:27:44;;;;;;;4.37;3.73;;;;;;;;;;5052591;28;20642;-52
2023/10/08 08:30:15;;;;;;;4.63;4.00;;;;;;;;;;5052455;28;20518;-52
2023/10/08 08:32:47;;;;;;;5.27;3.93;;;;;;;;;;5052661;28;20212;-52
2023/10/08 08:35:16;;;;;;;4.70;3.43;;;;;;;;;;5052286;28;20598;-53
2023/10/08 08:37:42;;;;;;;5.17;2.97;;;;;;;;;;5052376;28;20216;-53
2023/10/08 08:40:17;;;;;;;4.23;2.93;;;;;;;;;;5052089;28;20263;-53
2023/10/08 08:42:45;;;;;;;5.93;2.60;;;;;;;;;;5050665;28;20621;-52
2023/10/08 08:45:13;;;;;;;5.33;2.80;;;;;;;;;;5050424;28;20200;-53
2023/10/08 08:47:41;;;;;;;7.30;2.97;;;;;;;;;;5045606;28;20212;-52
2023/10/08 08:50:10;;;;;;;5.27;2.50;;;;;;;;;;5050450;28;20200;-52
2023/10/08 08:52:39;;;;;;;5.23;2.50;;;;;;;;;;5050525;28;20198;-52
2023/10/08 08:55:14;;;;;;;3.83;2.67;;;;;;;;;;5051820;28;20232;-52
2023/10/08 08:57:42;;;;;;;4.93;2.50;;;;;;;;;;5043590;28;20200;-53
2023/10/08 09:00:09;;;;;;;5.90;2.47;;;;;;;;;;5050377;28;20198;-53
2023/10/08 09:02:37;;;;;;;5.63;2.00;;;;;;;;;;5048700;28;20199;-53
2023/10/08 09:05:13;;;;;;;4.67;1.93;;;;;;;;;;5050213;28;20205;-53
2023/10/08 09:07:52;;;;;;;4.27;1.70;;;;;;;;;;5048423;28;20200;-53
2023/10/08 09:10:18;;;;;;;8.33;2.17;;;;;;;;;;5045165;28;20207;-53
2023/10/08 09:12:45;;;;;;;5.20;1.77;;;;;;;;;;5051819;28;20320;-53
2023/10/08 09:15:11;;;;;;;4.07;1.70;;;;;;;;;;5049800;28;20225;-53
2023/10/08 09:17:40;;;;;;;3.27;1.60;;;;;;;;;;5051199;28;20197;-53
2023/10/08 09:20:07;;;;;;;3.13;1.50;;;;;;;;;;5048240;28;20261;-53
2023/10/08 09:22:35;;;;;;;4.40;1.80;;;;;;;;;;5048494;28;20271;-53
2023/10/08 09:25:07;;;;;;;4.40;1.40;;;;;;;;;;5051656;28;20697;-53
2023/10/08 09:27:33;;;;;;;3.73;1.70;;;;;;;;;;5049839;28;20196;-53
2023/10/08 09:30:07;;;;;;;4.83;1.60;;;;;;;;;;5047960;28;20562;-53
2023/10/08 09:32:34;;;;;;;4.30;1.77;;;;;;;;;;5051666;28;20317;-53
2023/10/08 09:35:01;;;;;;;3.93;1.93;;;;;;;;;;5049444;28;20223;-53
2023/10/08 09:37:28;;;;;;;4.30;1.37;;;;;;;;;;5046415;28;20210;-53
2023/10/08 09:39:55;;;;;;;2.93;1.70;;;;;;;;;;5046176;28;20232;-53
2023/10/08 09:42:24;;;;;;;3.17;1.60;;;;;;;;;;5051361;28;20615;-53
2023/10/08 09:44:50;;;;;;;4.23;1.63;;;;;;;;;;5049715;28;20600;-53
2023/10/08 09:47:21;;;;;;;5.63;1.67;;;;;;;;;;5046289;28;20199;-53
2023/10/08 09:50:07;;;;;;;5.20;1.80;;;;;;;;;;5048024;28;20250;-53
2023/10/08 09:52:38;;;;;;;4.63;1.53;;;;;;;;;;5051757;28;20200;-53
2023/10/08 09:55:10;;;;;;;3.13;1.80;;;;;;;;;;5046477;28;20710;-53
2023/10/08 09:57:36;;;;;;;4.67;1.90;;;;;;;;;;5051740;28;20201;-53
2023/10/08 10:00:04;;;;;;;3.37;1.67;;;;;;;;;;5051496;28;20204;-53
2023/10/08 10:02:32;;;;;;;7.83;1.70;;;;;;;;;;5050025;28;20286;-53
2023/10/08 10:04:58;;;;;;;3.77;2.03;;;;;;;;;;5051584;28;20219;-53
2023/10/08 10:07:27;;;;;;;7.10;2.03;;;;;;;;;;5049775;28;20216;-53
2023/10/08 10:09:56;;;;;;;5.63;2.03;;;;;;;;;;5051506;28;20208;-53
2023/10/08 10:12:25;;;;;;;5.70;1.73;;;;;;;;;;5046334;28;20885;-53
2023/10/08 10:14:55;;;;;;;6.07;1.80;;;;;;;;;;5051259;28;20867;-52
2023/10/08 10:17:22;;;;;;;3.17;1.53;;;;;;;;;;5051588;28;20257;-57
2023/10/08 10:19:51;;;;;;;3.07;1.50;;;;;;;;;;5051326;28;20663;-53
2023/10/08 10:22:28;;;;;;;6.47;1.83;;;;;;;;;;5047981;28;20220;-53
2023/10/08 10:24:57;;;;;;;4.10;1.50;;;;;;;;;;5051387;28;20204;-54
2023/10/08 10:27:23;;;;;;;4.17;1.97;;;;;;;;;;5051323;28;20679;-57
2023/10/08 10:29:49;;;;;;;5.77;1.67;;;;;;;;;;5052287;28;20201;-54
2023/10/08 10:32:15;;;;;;;4.03;1.60;;;;;;;;;;5051558;28;20562;-53
2023/10/08 10:34:42;;;;;;;4.60;2.00;;;;;;;;;;5055214;28;20231;-53
2023/10/08 10:37:09;;;;;;;3.87;1.63;;;;;;;;;;5054958;28;20307;-52
2023/10/08 10:39:39;;;;;;;3.20;1.50;;;;;;;;;;5053366;28;20267;-54
2023/10/08 10:42:20;;;;;;;4.57;1.80;;;;;;;;;;5053307;28;20288;-53
2023/10/08 10:44:49;;;;;;;4.70;1.50;;;;;;;;;;5051554;28;20702;-53
2023/10/08 10:52:44;;;;;;;5.83;1.90;;;;;;;;;;5053144;28;20328;-53
2023/10/08 10:57:44;;;;;;;3.37;1.77;;;;;;;;;;5051417;28;20193;-52
2023/10/08 11:00:47;;;;;;;4.37;1.90;;;;;;;;;;5054594;28;20198;-53
2023/10/08 11:03:02;;;;;;;4.80;1.60;;;;;;;;;;5055647;28;20204;-53
2023/10/08 11:05:28;;;;;;;4.73;1.80;;;;;;;;;;5054828;28;20199;-53
2023/10/08 11:08:00;;;;;;;3.17;1.67;;;;;;;;;;5049269;28;20686;-53
2023/10/08 11:10:28;;;;;;;3.80;1.80;;;;;;;;;;5052844;28;20197;-52
2023/10/08 11:12:58;;;;;;;3.77;1.87;;;;;;;;;;5054429;28;20229;-56
2023/10/08 11:15:32;;;;;;;4.70;1.90;;;;;;;;;;5052559;28;20734;-53
2023/10/08 11:17:59;;;;;;;5.10;1.70;;;;;;;;;;5050839;28;20755;-53
2023/10/08 11:20:26;;;;;;;5.17;1.60;;;;;;;;;;5050907;28;20201;-53
2023/10/08 11:22:53;;;;;;;5.67;1.80;;;;;;;;;;5050823;28;20210;-53
2023/10/08 11:25:24;;;;;;;5.93;1.93;;;;;;;;;;5050891;28;20677;-53
2023/10/08 11:27:58;;;;;;;4.50;1.67;;;;;;;;;;5054263;28;20632;-53
2023/10/08 11:30:30;;;;;;;5.63;2.00;;;;;;;;;;5053993;28;20672;-53
2023/10/08 11:32:57;;;;;;;3.70;1.80;;;;;;;;;;5052372;28;20233;-53
2023/10/08 11:35:23;;;;;;;5.53;1.60;;;;;;;;;;5052070;28;20246;-53
2023/10/08 11:37:50;;;;;;;3.43;1.97;;;;;;;;;;5052297;28;20205;-53
2023/10/08 11:40:28;;;;;;;7.47;2.03;;;;;;;;;;5053252;28;20241;-53
2023/10/08 11:42:56;;;;;;;8.60;2.37;;;;;;;;;;5048744;28;20205;-53
2023/10/08 11:45:38;;;;;;;3.60;1.80;;;;;;;;;;5053760;28;20589;-53
2023/10/08 11:48:11;;;;;;;5.40;1.80;;;;;;;;;;5053847;28;20210;-53
2023/10/08 11:50:38;;;;;;;5.60;1.90;;;;;;;;;;5053799;28;20200;-53
2023/10/08 11:53:07;;;;;;;6.17;2.07;;;;;;;;;;5053771;28;20540;-53
2023/10/08 11:55:35;;;;;;;3.13;1.50;;;;;;;;;;5053594;28;20312;-53
2023/10/08 11:58:09;;;;;;;6.70;2.10;;;;;;;;;;5053558;28;20201;-53
2023/10/08 12:00:36;;;;;;;5.90;1.93;;;;;;;;;;5053528;28;20604;-53
2023/10/08 12:03:02;;;;;;;3.27;1.73;;;;;;;;;;5053457;28;20668;-57
2023/10/08 12:05:34;;;;;;;3.67;1.77;;;;;;;;;;5053565;28;20200;-58
2023/10/08 12:08:00;;;;;;;3.00;1.47;;;;;;;;;;5053340;28;20625;-54
2023/10/08 12:10:26;;;;;;;2.57;1.60;;;;;;;;;;5053277;28;20658;-52
2023/10/08 12:12:52;;;;;;;5.90;1.80;;;;;;;;;;5053426;28;20205;-53
2023/10/08 12:15:22;;;;;;;4.53;1.77;;;;;;;;;;5053154;28;20220;-53
2023/10/08 12:20:34;;;;;;;7.10;1.83;;;;;;;;;;5053244;28;20244;-54
2023/10/08 12:23:03;;;;;;;4.10;1.60;;;;;;;;;;5053188;28;20213;-53
2023/10/08 12:25:32;;;;;;;4.17;1.70;;;;;;;;;;5053199;28;20200;-53
2023/10/08 12:27:58;;;;;;;3.70;1.70;;;;;;;;;;5053097;28;20202;-52
2023/10/08 12:30:30;;;;;;;3.13;1.73;;;;;;;;;;5052834;28;20201;-52
2023/10/08 12:32:57;;;;;;;3.87;1.90;;;;;;;;;;5052891;28;20659;-53
2023/10/08 12:35:24;;;;;;;2.60;1.70;;;;;;;;;;5052727;28;20258;-52
2023/10/08 12:37:51;;;;;;;7.40;2.03;;;;;;;;;;5052965;28;20678;-53
2023/10/08 12:40:23;;;;;;;6.30;2.00;;;;;;;;;;5052668;28;20235;-52
2023/10/08 12:42:50;;;;;;;3.70;1.93;;;;;;;;;;5052954;28;20568;-51
2023/10/08 12:45:20;;;;;;;6.80;2.00;;;;;;;;;;5052820;28;20207;-52
2023/10/08 12:47:47;;;;;;;4.27;1.70;;;;;;;;;;5052759;28;20204;-53
2023/10/08 12:50:15;;;;;;;4.27;1.77;;;;;;;;;;5052472;28;20315;-54
2023/10/08 12:52:47;;;;;;;3.53;1.83;;;;;;;;;;5051692;28;20226;-53
2023/10/08 12:55:14;;;;;;;8.73;1.90;;;;;;;;;;5052344;28;20231;-53
2023/10/08 12:57:42;;;;;;;4.10;1.53;;;;;;;;;;5052564;28;20200;-57
2023/10/08 13:00:08;;;;;;;6.63;1.53;;;;;;;;;;5052352;28;20212;-54
2023/10/08 13:02:39;;;;;;;3.63;1.50;;;;;;;;;;5052539;28;20203;-53
2023/10/08 13:05:15;;;;;;;3.03;2.00;;;;;;;;;;5052378;28;20299;-54
2023/10/08 13:07:42;;;;;;;4.00;1.90;;;;;;;;;;5052345;28;20211;-53
2023/10/08 13:10:14;;;;;;;5.80;2.03;;;;;;;;;;5052124;28;20256;-52
2023/10/08 13:12:41;;;;;;;4.77;2.00;;;;;;;;;;5052258;28;20203;-54
2023/10/08 13:15:08;;;;;;;6.23;2.10;;;;;;;;;;5051968;28;20231;-52
2023/10/08 13:17:34;;;;;;;4.37;1.60;;;;;;;;;;5052190;28;20222;-52
2023/10/08 13:20:00;;;;;;;5.00;1.60;;;;;;;;;;5052060;28;20206;-53
2023/10/08 13:22:27;;;;;;;7.33;2.17;;;;;;;;;;5052100;28;20234;-52
2023/10/08 13:24:53;;;;;;;3.77;1.67;;;;;;;;;;5052091;28;20207;-53
2023/10/08 13:27:19;;;;;;;3.40;1.63;;;;;;;;;;5052036;28;20222;-53
2023/10/08 13:29:46;;;;;;;3.63;1.70;;;;;;;;;;5051975;28;20269;-54
2023/10/08 13:32:17;;;;;;;4.03;1.60;;;;;;;;;;5051697;28;20212;-54
2023/10/08 13:34:43;;;;;;;5.67;1.90;;;;;;;;;;5051835;28;20314;-54
2023/10/08 13:37:09;;;;;;;3.53;1.70;;;;;;;;;;5051649;28;20251;-54
2023/10/08 13:39:35;;;;;;;6.83;1.87;;;;;;;;;;5051802;28;20263;-54
2023/10/08 13:42:01;;;;;;;6.00;2.03;;;;;;;;;;5051764;28;20717;-54
2023/10/08 13:44:30;;;;;;;5.33;1.87;;;;;;;;;;5051907;28;20191;-54
2023/10/08 13:46:59;;;;;;;6.07;1.97;;;;;;;;;;5051726;28;20283;-54
2023/10/08 13:49:32;;;;;;;5.83;2.40;;;;;;;;;;5051588;28;20211;-54
2023/10/08 13:51:58;;;;;;;5.87;1.97;;;;;;;;;;5051668;28;20285;-54
2023/10/08 13:54:32;;;;;;;2.87;1.67;;;;;;;;;;5051502;28;20309;-54
2023/10/08 13:56:58;;;;;;;4.83;2.03;;;;;;;;;;5051654;28;20210;-53
2023/10/08 13:59:24;;;;;;;3.93;1.63;;;;;;;;;;5051477;28;20191;-54
2023/10/08 14:01:55;;;;;;;3.70;1.53;;;;;;;;;;5051787;28;20200;-54
2023/10/08 14:04:34;;;;;;;5.30;2.03;;;;;;;;;;5053385;28;20192;-54
2023/10/08 14:07:02;;;;;;;6.73;1.70;;;;;;;;;;5055833;28;20278;-54
2023/10/08 14:09:35;;;;;;;3.40;1.43;;;;;;;;;;5055759;28;20280;-54
2023/10/08 14:12:01;;;;;;;3.13;1.67;;;;;;;;;;5055688;28;20257;-54
2023/10/08 14:14:29;;;;;;;3.37;1.67;;;;;;;;;;5055438;28;20705;-54
2023/10/08 14:16:59;;;;;;;3.93;2.10;;;;;;;;;;5055417;28;20761;-54
2023/10/08 14:19:42;;;;;;;3.07;1.70;;;;;;;;;;5055364;28;20757;-54
2023/10/08 14:22:13;;;;;;;2.97;1.80;;;;;;;;;;5055383;28;20231;-54
2023/10/08 14:24:39;;;;;;;5.20;1.70;;;;;;;;;;5055408;28;20200;-54
2023/10/08 14:27:14;;;;;;;3.83;1.73;;;;;;;;;;5055281;28;20253;-54
2023/10/08 14:29:44;;;;;;;4.13;1.60;;;;;;;;;;5055170;28;20219;-54
2023/10/08 14:32:10;;;;;;;5.53;1.70;;;;;;;;;;5055122;28;20227;-55
2023/10/08 14:45:27;;;;;;;3.53;1.70;;;;;;;;;;5054875;28;20223;-55
2023/10/08 14:47:54;;;;;;;4.87;1.83;;;;;;;;;;5054881;28;20200;-54
2023/10/08 14:50:22;;;;;;;5.60;1.80;;;;;;;;;;5054850;28;20613;-54
2023/10/08 14:52:48;;;;;;;2.93;1.73;;;;;;;;;;5053323;28;20204;-55
2023/10/08 14:55:15;;;;;;;3.83;1.73;;;;;;;;;;5052746;28;20780;-54
2023/10/08 14:57:42;;;;;;;4.27;1.80;;;;;;;;;;5054725;28;20223;-53
2023/10/08 15:00:10;;;;;;;3.93;1.73;;;;;;;;;;5054489;28;20246;-55
2023/10/08 15:02:37;;;;;;;3.77;1.70;;;;;;;;;;5054636;28;20568;-55
2023/10/08 15:05:03;;;;;;;3.03;1.73;;;;;;;;;;5051160;28;20196;-55
2023/10/08 15:07:31;;;;;;;4.20;1.77;;;;;;;;;;5054558;28;20195;-55
2023/10/08 15:09:57;;;;;;;3.50;1.70;;;;;;;;;;5052788;28;20254;-55
2023/10/08 15:12:25;;;;;;;2.80;1.50;;;;;;;;;;5052729;28;20196;-56
2023/10/08 15:14:51;;;;;;;6.77;1.97;;;;;;;;;;5051959;28;20224;-55
2023/10/08 15:17:17;;;;;;;3.90;1.93;;;;;;;;;;5052888;28;20199;-55
2023/10/08 15:19:43;;;;;;;3.03;1.70;;;;;;;;;;5053678;28;20579;-55
2023/10/08 15:22:09;;;;;;;5.13;1.80;;;;;;;;;;5053782;28;20200;-55
2023/10/08 15:24:39;;;;;;;5.97;2.07;;;;;;;;;;5053979;28;20212;-55
2023/10/08 15:27:05;;;;;;;6.10;1.90;;;;;;;;;;5053853;28;20229;-54
2023/10/08 15:29:33;;;;;;;3.23;1.83;;;;;;;;;;5054024;28;20274;-56
2023/10/08 15:31:59;;;;;;;6.03;1.83;;;;;;;;;;5053718;28;20682;-55
2023/10/08 15:34:26;;;;;;;2.97;1.80;;;;;;;;;;5053629;28;20762;-55
2023/10/08 15:36:52;;;;;;;3.27;1.60;;;;;;;;;;5053442;28;20659;-55
2023/10/08 15:39:24;;;;;;;2.90;1.63;;;;;;;;;;5051662;28;20717;-54
2023/10/08 15:41:52;;;;;;;3.17;1.73;;;;;;;;;;5051978;28;20261;-55
2023/10/08 15:44:20;;;;;;;2.00;1.50;;;;;;;;;;5051730;28;20249;-55
2023/10/08 15:46:46;;;;;;;3.57;1.80;;;;;;;;;;5053540;28;20249;-59
2023/10/08 15:49:12;;;;;;;5.53;2.20;;;;;;;;;;5053212;28;20215;-54
2023/10/08 15:51:39;;;;;;;3.70;1.97;;;;;;;;;;5053367;28;20199;-54
2023/10/08 15:54:06;;;;;;;7.40;2.20;;;;;;;;;;5053281;28;20301;-54